Time;durP1;ratioP1;P1;durP2;ratioP2;P2;SDS_P1;SDS_P2;PMS_P1;PMS_P2;Temp;Humidity;BMP_temperature;BMP_pressure;BME280_temperature;BME280_humidity;BME280_pressure;Samples;Min_cycle;Max_cycle;Signal;HPM_P1;HPM_P2
2023/06/18 00:00:38;;;;;;;5.70;4.20;;;;;;;26.01;41.09;99810.48;108107;1288;21990;-76
2023/06/18 00:03:04;;;;;;;9.60;4.30;;;;;;;25.97;41.14;99808.47;107966;1288;23650;-77
2023/06/18 00:05:30;;;;;;;9.50;5.20;;;;;;;25.93;41.13;99803.98;108142;1286;22049;-61
2023/06/18 00:07:56;;;;;;;7.90;5.10;;;;;;;25.90;41.10;99807.14;108108;1288;22182;-77
2023/06/18 00:10:21;;;;;;;7.30;4.60;;;;;;;25.87;41.29;99808.45;107981;1287;21997;-60
2023/06/18 00:12:47;;;;;;;9.10;5.10;;;;;;;25.86;41.37;99806.06;108130;1278;22442;-61
2023/06/18 00:15:13;;;;;;;6.80;4.20;;;;;;;25.84;41.44;99806.88;108123;1288;21995;-76
2023/06/18 00:17:39;;;;;;;8.10;4.70;;;;;;;25.83;41.42;99803.77;108186;1278;22080;-60
2023/06/18 00:20:06;;;;;;;8.40;4.60;;;;;;;25.81;41.41;99805.53;108159;1288;22029;-60
2023/06/18 00:22:36;;;;;;;7.90;4.70;;;;;;;25.79;41.49;99803.17;108154;1288;21992;-78
2023/06/18 00:25:02;;;;;;;6.20;4.70;;;;;;;25.78;41.54;99805.77;108185;1285;21994;-60
2023/06/18 00:27:27;;;;;;;7.90;5.50;;;;;;;25.76;41.71;99805.04;108121;1284;22456;-64
2023/06/18 00:29:53;;;;;;;7.40;4.70;;;;;;;25.75;41.93;99807.64;107920;1289;22004;-61
2023/06/18 00:32:19;;;;;;;5.80;4.70;;;;;;;25.74;41.83;99806.16;107983;1287;22026;-60
2023/06/18 00:34:46;;;;;;;8.30;4.90;;;;;;;25.72;41.96;99806.49;108008;1288;21997;-77
2023/06/18 00:37:12;;;;;;;7.20;4.60;;;;;;;25.71;41.84;99809.32;108044;1287;22762;-78
2023/06/18 00:39:38;;;;;;;5.60;4.00;;;;;;;25.67;41.87;99808.84;107953;1288;196349;-79
2023/06/18 00:42:10;;;;;;;6.40;4.50;;;;;;;25.66;41.99;99807.00;108110;1280;23831;-79
2023/06/18 00:44:40;;;;;;;9.20;4.70;;;;;;;25.64;42.11;99810.20;108126;1287;22784;-59
2023/06/18 00:47:11;;;;;;;7.10;4.60;;;;;;;25.61;42.22;99805.46;108088;1282;21998;-79
2023/06/18 00:49:37;;;;;;;9.80;4.60;;;;;;;25.56;42.45;99805.88;108168;1287;22003;-78
2023/06/18 00:52:05;;;;;;;6.80;4.80;;;;;;;25.52;42.43;99809.98;108233;1277;23101;-60
2023/06/18 00:54:32;;;;;;;7.80;4.90;;;;;;;25.48;42.50;99812.97;108079;1284;23787;-60
2023/06/18 00:56:59;;;;;;;7.90;5.00;;;;;;;25.44;42.37;99812.42;108247;1288;22029;-79
2023/06/18 00:59:25;;;;;;;8.30;4.80;;;;;;;25.40;42.59;99810.97;107905;1288;21987;-79
2023/06/18 01:01:54;;;;;;;5.90;4.70;;;;;;;25.35;42.53;99809.73;108154;1288;21990;-60
2023/06/18 01:04:22;;;;;;;7.80;4.20;;;;;;;25.32;42.63;99810.12;108146;1288;21992;-77
2023/06/18 01:06:51;;;;;;;6.20;4.70;;;;;;;25.29;42.66;99811.14;108211;1281;22454;-79
2023/06/18 01:09:22;;;;;;;8.20;4.40;;;;;;;25.26;42.78;99809.42;108177;1284;21992;-78
2023/06/18 01:11:51;;;;;;;7.60;4.70;;;;;;;25.24;42.60;99811.17;108203;1288;21993;-60
2023/06/18 01:14:21;;;;;;;7.00;4.40;;;;;;;25.21;42.69;99808.88;108187;1287;21982;-79
2023/06/18 01:17:08;;;;;;;6.70;4.60;;;;;;;25.20;42.70;99812.06;108137;1288;21961;-60
2023/06/18 01:19:58;;;;;;;8.70;5.10;;;;;;;25.18;42.83;99811.67;108162;1288;23612;-60
2023/06/18 01:22:29;;;;;;;6.80;5.10;;;;;;;25.15;42.83;99811.06;108197;1288;21992;-60
2023/06/18 01:24:57;;;;;;;8.10;4.50;;;;;;;25.09;42.83;99807.21;108048;1289;21986;-78
2023/06/18 01:27:25;;;;;;;7.60;5.00;;;;;;;25.04;42.96;99810.10;108002;1289;21995;-80
2023/06/18 01:29:50;;;;;;;6.60;4.50;;;;;;;25.00;43.15;99806.89;107899;1289;23708;-60
2023/06/18 01:32:17;;;;;;;6.40;4.60;;;;;;;24.95;43.28;99806.37;108020;1288;21998;-78
2023/06/18 01:34:44;;;;;;;8.90;4.70;;;;;;;24.92;43.29;99809.31;108040;1289;21994;-61
2023/06/18 01:37:14;;;;;;;6.10;4.70;;;;;;;24.89;43.25;99810.42;108028;1289;22388;-61
2023/06/18 01:39:54;;;;;;;7.70;5.10;;;;;;;24.86;43.35;99809.25;108008;1289;22273;-60
2023/06/18 01:42:20;;;;;;;7.20;5.00;;;;;;;24.84;43.49;99814.65;107841;1284;23723;-64
2023/06/18 01:44:49;;;;;;;8.70;5.00;;;;;;;24.81;43.45;99815.54;108017;1289;22002;-76
2023/06/18 01:47:14;;;;;;;7.90;4.80;;;;;;;24.77;43.57;99817.67;107923;1289;23647;-78
2023/06/18 01:49:42;;;;;;;6.50;4.80;;;;;;;24.74;43.54;99824.23;107916;1289;22000;-78
2023/06/18 01:52:08;;;;;;;8.00;5.00;;;;;;;24.70;43.69;99823.11;108004;1287;21997;-77
2023/06/18 01:54:33;;;;;;;10.00;4.80;;;;;;;24.63;43.76;99825.78;107799;1289;21999;-77
2023/06/18 01:57:00;;;;;;;8.80;4.70;;;;;;;24.58;43.75;99828.31;107876;1289;21992;-78
2023/06/18 01:59:26;;;;;;;8.50;4.70;;;;;;;24.56;43.80;99831.89;107994;1289;21995;-60
2023/06/18 02:01:52;;;;;;;7.10;4.90;;;;;;;24.56;43.99;99834.98;108097;1288;21994;-60
2023/06/18 02:04:17;;;;;;;7.10;4.80;;;;;;;24.55;43.86;99835.36;108103;1288;21995;-77
2023/06/18 02:06:43;;;;;;;6.10;4.50;;;;;;;24.56;43.94;99839.45;108138;1287;21994;-79
2023/06/18 02:09:09;;;;;;;8.20;4.50;;;;;;;24.55;44.12;99841.66;108109;1288;21989;-76
2023/06/18 02:11:36;;;;;;;8.40;5.00;;;;;;;24.55;44.27;99842.39;108053;1288;24320;-61
2023/06/18 02:14:01;;;;;;;6.20;5.00;;;;;;;24.53;44.30;99842.20;108004;1289;21994;-78
2023/06/18 02:16:27;;;;;;;9.40;5.10;;;;;;;24.51;44.38;99845.02;108032;1280;23154;-77
2023/06/18 02:18:52;;;;;;;8.00;4.80;;;;;;;24.51;44.41;99846.61;108063;1289;22126;-60
2023/06/18 02:21:18;;;;;;;6.90;4.60;;;;;;;24.51;44.47;99848.05;108032;1289;21999;-67
2023/06/18 02:23:45;;;;;;;12.90;5.00;;;;;;;24.50;44.50;99849.05;108023;1281;21993;-78
2023/06/18 02:26:13;;;;;;;7.30;4.50;;;;;;;24.49;44.60;99848.55;108031;1289;21997;-79
2023/06/18 02:28:39;;;;;;;13.90;5.00;;;;;;;24.48;44.75;99848.80;108065;1289;23692;-79
2023/06/18 02:31:06;;;;;;;7.10;4.90;;;;;;;24.49;44.75;99846.98;108041;1288;23753;-60
2023/06/18 02:33:32;;;;;;;7.20;4.90;;;;;;;24.51;45.01;99851.66;108036;1289;22025;-77
2023/06/18 02:35:58;;;;;;;17.20;5.70;;;;;;;24.53;44.97;99854.52;108068;1289;24319;-64
2023/06/18 02:38:25;;;;;;;10.00;4.70;;;;;;;24.56;44.97;99852.50;108031;1281;21982;-60
2023/06/18 02:40:51;;;;;;;10.60;5.30;;;;;;;24.60;45.09;99852.67;107999;1284;21985;-60
2023/06/18 02:43:16;;;;;;;11.70;4.80;;;;;;;24.63;45.23;99854.05;108135;1284;22003;-60
2023/06/18 02:45:42;;;;;;;9.40;5.10;;;;;;;24.67;45.47;99856.67;108117;1288;22273;-78
2023/06/18 02:48:08;;;;;;;9.40;4.70;;;;;;;24.70;45.71;99855.58;107818;1286;23613;-60
2023/06/18 02:50:33;;;;;;;12.60;5.20;;;;;;;24.72;45.70;99857.01;108256;1288;22000;-59
2023/06/18 02:52:59;;;;;;;15.80;5.80;;;;;;;24.79;45.58;99858.65;108067;1288;22080;-60
2023/06/18 02:55:25;;;;;;;13.60;5.20;;;;;;;24.93;45.37;99862.86;108135;1284;22277;-79
2023/06/18 02:57:50;;;;;;;11.50;5.00;;;;;;;25.01;45.33;99862.79;108109;1288;23771;-60
2023/06/18 03:00:16;;;;;;;9.50;4.60;;;;;;;25.08;45.45;99866.71;108067;1278;21980;-78
2023/06/18 03:02:42;;;;;;;9.20;4.90;;;;;;;25.17;45.55;99872.79;108012;1288;21990;-61
2023/06/18 03:05:08;;;;;;;10.80;5.30;;;;;;;25.26;45.71;99872.23;108081;1288;21989;-60
2023/06/18 03:07:37;;;;;;;8.60;5.60;;;;;;;25.37;45.58;99876.05;108179;1284;22026;-61
2023/06/18 03:10:04;;;;;;;15.90;5.70;;;;;;;25.47;45.59;99878.83;108527;1288;21957;-62
2023/06/18 03:12:30;;;;;;;7.40;5.50;;;;;;;25.57;45.51;99880.13;108759;1288;21992;-79
2023/06/18 03:14:55;;;;;;;11.00;5.60;;;;;;;25.67;45.57;99881.46;108105;1285;23634;-58
2023/06/18 03:17:21;;;;;;;12.80;5.60;;;;;;;25.76;45.56;99881.80;108125;1280;22005;-58
2023/06/18 03:19:49;;;;;;;11.10;5.40;;;;;;;25.85;45.48;99883.17;108137;1288;21990;-79
2023/06/18 03:22:16;;;;;;;8.40;4.70;;;;;;;25.93;45.32;99881.42;107852;1288;21987;-61
2023/06/18 03:24:41;;;;;;;24.10;5.60;;;;;;;26.01;45.36;99886.37;108144;1288;21998;-61
2023/06/18 03:27:07;;;;;;;11.10;5.50;;;;;;;26.08;45.39;99889.14;108141;1284;21994;-61
2023/06/18 03:29:35;;;;;;;10.90;4.90;;;;;;;26.15;45.32;99890.41;108212;1287;21959;-60
2023/06/18 03:32:01;;;;;;;7.90;4.90;;;;;;;26.20;45.28;99885.30;108033;1288;23663;-70
2023/06/18 03:34:26;;;;;;;11.40;5.60;;;;;;;26.25;45.37;99883.78;108111;1288;21994;-80
2023/06/18 03:36:53;;;;;;;9.90;6.00;;;;;;;26.31;45.33;99885.26;108139;1288;21986;-60
2023/06/18 03:39:20;;;;;;;10.10;5.50;;;;;;;26.38;45.26;99884.19;108163;1286;22455;-60
2023/06/18 03:41:45;;;;;;;15.10;5.80;;;;;;;26.44;45.29;99886.90;108074;1288;21994;-78
2023/06/18 03:44:11;;;;;;;12.80;6.20;;;;;;;26.49;45.24;99886.58;108134;1288;21992;-80
2023/06/18 03:46:37;;;;;;;12.60;5.20;;;;;;;26.54;45.26;99886.14;107992;1284;21992;-79
2023/06/18 03:49:03;;;;;;;12.10;5.40;;;;;;;26.59;45.22;99888.58;107790;1289;23732;-77
2023/06/18 03:51:29;;;;;;;15.00;5.30;;;;;;;26.67;45.23;99888.05;107974;1289;21994;-60
2023/06/18 03:53:54;;;;;;;8.50;5.40;;;;;;;26.77;45.20;99891.16;107220;1289;1002396;-79
2023/06/18 03:56:21;;;;;;;9.30;5.40;;;;;;;26.86;45.13;99892.40;107967;1283;23044;-60
2023/06/18 03:58:48;;;;;;;7.90;5.50;;;;;;;26.95;45.06;99892.48;107826;1289;21983;-60
2023/06/18 04:01:14;;;;;;;7.50;5.30;;;;;;;27.04;45.01;99895.69;108011;1289;22000;-76
2023/06/18 04:03:40;;;;;;;6.70;5.40;;;;;;;27.11;44.99;99897.78;108042;1286;21992;-79
2023/06/18 04:06:06;;;;;;;10.20;5.60;;;;;;;27.17;45.05;99899.56;108117;1284;23612;-60
2023/06/18 04:08:31;;;;;;;10.10;5.30;;;;;;;27.23;45.15;99898.66;108133;1283;22001;-60
2023/06/18 04:10:58;;;;;;;10.90;5.30;;;;;;;27.32;45.17;99899.09;108076;1288;22001;-61
2023/06/18 04:13:24;;;;;;;13.20;5.70;;;;;;;27.43;45.05;99897.21;108128;1288;21999;-79
2023/06/18 04:15:49;;;;;;;8.20;4.90;;;;;;;27.51;44.78;99894.95;107862;1288;21992;-60
2023/06/18 04:18:15;;;;;;;10.30;5.40;;;;;;;27.58;44.82;99893.54;108108;1288;21994;-60
2023/06/18 04:20:41;;;;;;;9.40;5.70;;;;;;;27.70;44.76;99896.98;108153;1281;21989;-77
2023/06/18 04:23:07;;;;;;;6.70;5.40;;;;;;;27.82;44.56;99899.66;108157;1288;21989;-76
2023/06/18 04:25:33;;;;;;;8.70;5.70;;;;;;;27.94;44.33;99905.74;108168;1288;21991;-77
2023/06/18 04:27:59;;;;;;;8.10;5.50;;;;;;;28.04;44.34;99907.54;108150;1288;21984;-61
2023/06/18 04:30:25;;;;;;;6.50;5.30;;;;;;;28.14;44.24;99909.33;108217;1288;21988;-60
2023/06/18 04:32:51;;;;;;;11.50;6.20;;;;;;;28.24;44.16;99909.13;108140;1284;22097;-60
2023/06/18 04:35:16;;;;;;;8.40;5.90;;;;;;;28.33;44.15;99908.25;108070;1278;22043;-60
2023/06/18 04:37:42;;;;;;;6.90;5.60;;;;;;;28.42;43.94;99911.20;108161;1288;22449;-72
2023/06/18 04:40:08;;;;;;;7.00;5.40;;;;;;;28.51;43.94;99914.32;107880;1289;21958;-62
2023/06/18 04:42:35;;;;;;;7.10;5.10;;;;;;;28.67;44.04;99916.79;107917;1289;22005;-78
2023/06/18 04:45:01;;;;;;;7.30;5.00;;;;;;;28.86;43.74;99917.14;108786;1277;22023;-78
2023/06/18 04:47:27;;;;;;;9.30;5.70;;;;;;;29.04;43.66;99917.55;108109;1288;21992;-76
2023/06/18 04:49:52;;;;;;;10.10;6.10;;;;;;;29.22;43.37;99922.77;108082;1288;22006;-77
2023/06/18 04:52:18;;;;;;;8.80;5.20;;;;;;;29.40;43.17;99922.43;107847;1287;21990;-60
2023/06/18 04:54:44;;;;;;;7.10;5.50;;;;;;;29.56;42.86;99924.10;108118;1288;22003;-60
2023/06/18 04:57:10;;;;;;;9.10;6.20;;;;;;;29.73;42.81;99925.33;108137;1288;21989;-60
2023/06/18 04:59:39;;;;;;;11.50;5.80;;;;;;;29.89;42.46;99925.38;108126;1288;22004;-60
2023/06/18 05:02:06;;;;;;;14.00;7.10;;;;;;;30.05;42.19;99927.13;108137;1281;21995;-60
2023/06/18 05:04:33;;;;;;;12.40;6.40;;;;;;;30.19;41.91;99928.00;108180;1288;22050;-60
2023/06/18 05:06:59;;;;;;;9.10;5.70;;;;;;;30.34;41.98;99930.58;108098;1283;21983;-76
2023/06/18 05:09:29;;;;;;;8.10;5.80;;;;;;;30.53;41.83;99933.49;108100;1288;22164;-61
2023/06/18 05:11:55;;;;;;;8.00;5.50;;;;;;;30.76;41.66;99938.44;108097;1288;21989;-61
2023/06/18 05:14:20;;;;;;;8.20;5.30;;;;;;;30.95;41.26;99938.05;108116;1288;21992;-74
2023/06/18 05:16:46;;;;;;;7.00;5.30;;;;;;;31.17;41.16;99939.05;108167;1283;22026;-73
2023/06/18 05:19:12;;;;;;;6.10;5.30;;;;;;;31.37;40.96;99939.23;108192;1288;21989;-74
2023/06/18 05:21:37;;;;;;;8.80;4.90;;;;;;;31.57;40.85;99937.14;108206;1284;21999;-61
2023/06/18 05:24:04;;;;;;;10.10;5.60;;;;;;;31.75;40.67;99941.20;108103;1280;21988;-60
2023/06/18 05:26:31;;;;;;;9.30;5.30;;;;;;;31.94;40.45;99946.21;108153;1288;21997;-60
2023/06/18 05:28:57;;;;;;;12.10;5.80;;;;;;;32.11;39.91;99950.44;108092;1284;21997;-63
2023/06/18 05:31:22;;;;;;;8.30;6.20;;;;;;;32.23;39.86;99951.33;108022;1287;22005;-60
2023/06/18 05:33:48;;;;;;;6.90;5.10;;;;;;;32.38;39.72;99952.30;108004;1289;21991;-74
2023/06/18 05:36:15;;;;;;;8.10;4.90;;;;;;;32.55;39.42;99953.91;108106;1288;21996;-73
2023/06/18 05:38:40;;;;;;;13.20;5.80;;;;;;;32.68;39.03;99953.09;107857;1288;22083;-60
2023/06/18 05:41:06;;;;;;;7.70;5.60;;;;;;;32.77;38.88;99955.75;108057;1288;22156;-73
2023/06/18 05:43:31;;;;;;;8.50;5.50;;;;;;;32.84;38.68;99957.73;108001;1280;22029;-73
2023/06/18 05:45:57;;;;;;;10.00;5.90;;;;;;;32.88;38.41;99957.09;108027;1288;21992;-73
2023/06/18 05:48:23;;;;;;;8.70;4.90;;;;;;;32.94;38.48;99958.22;107960;1289;21995;-73
2023/06/18 05:50:48;;;;;;;8.00;5.60;;;;;;;33.09;38.42;99955.80;108026;1289;22014;-73
2023/06/18 05:53:14;;;;;;;12.00;5.40;;;;;;;33.28;38.11;99956.04;109238;1284;22019;-61
2023/06/18 05:55:40;;;;;;;7.40;5.30;;;;;;;33.41;37.87;99958.10;108020;1289;22030;-73
2023/06/18 05:58:05;;;;;;;7.40;4.90;;;;;;;33.55;37.73;99961.48;108047;1280;22026;-60
2023/06/18 06:00:32;;;;;;;9.00;5.70;;;;;;;33.64;37.40;99964.77;108198;1283;21992;-72
2023/06/18 06:02:58;;;;;;;9.10;5.00;;;;;;;33.71;37.22;99967.38;108071;1281;22009;-73
2023/06/18 06:05:23;;;;;;;7.50;5.20;;;;;;;33.75;37.03;99964.77;108017;1283;22547;-60
2023/06/18 06:07:49;;;;;;;8.40;5.40;;;;;;;33.82;37.15;99966.08;108006;1281;22469;-60
2023/06/18 06:10:16;;;;;;;6.10;4.90;;;;;;;34.05;37.19;99970.20;107927;1287;22048;-60
2023/06/18 06:12:42;;;;;;;7.40;5.00;;;;;;;34.34;36.80;99972.38;107962;1284;22012;-74
2023/06/18 06:15:09;;;;;;;6.30;5.00;;;;;;;34.61;36.59;99976.02;107978;1288;21994;-73
2023/06/18 06:17:37;;;;;;;8.80;4.80;;;;;;;34.80;36.49;99973.28;108125;1288;21999;-61
2023/06/18 06:20:03;;;;;;;7.00;5.20;;;;;;;35.00;36.28;99969.92;108180;1288;23083;-60
2023/06/18 06:22:29;;;;;;;6.30;4.80;;;;;;;35.26;35.90;99966.64;108110;1283;22010;-71
2023/06/18 06:24:55;;;;;;;9.40;5.10;;;;;;;35.57;35.36;99966.81;108139;1284;22156;-71
2023/06/18 06:27:20;;;;;;;7.60;4.80;;;;;;;35.71;34.96;99968.32;108112;1288;21988;-71
2023/06/18 06:29:46;;;;;;;8.40;4.80;;;;;;;35.77;34.76;99969.67;108166;1280;21990;-72
2023/06/18 06:32:12;;;;;;;6.70;4.80;;;;;;;35.86;34.78;99971.79;108097;1288;21994;-61
2023/06/18 06:34:37;;;;;;;7.00;4.80;;;;;;;36.04;34.82;99973.21;108113;1288;22015;-69
2023/06/18 06:37:03;;;;;;;7.70;4.90;;;;;;;36.21;34.31;99966.41;107826;1288;22026;-62
2023/06/18 06:39:29;;;;;;;7.50;4.40;;;;;;;36.35;33.83;99969.10;108118;1283;21990;-72
2023/06/18 06:41:55;;;;;;;8.30;4.70;;;;;;;36.49;33.93;99968.02;108088;1281;21988;-70
2023/06/18 06:44:20;;;;;;;6.70;4.80;;;;;;;36.67;33.81;99968.81;108140;1280;21989;-71
2023/06/18 06:46:46;;;;;;;8.40;4.70;;;;;;;36.80;33.67;99968.31;108117;1287;22072;-72
2023/06/18 06:49:11;;;;;;;6.90;4.70;;;;;;;36.99;33.45;99963.20;108095;1280;22088;-72
2023/06/18 06:51:37;;;;;;;8.60;4.50;;;;;;;37.17;33.33;99961.98;108206;1281;22024;-71
2023/06/18 06:54:03;;;;;;;7.00;4.90;;;;;;;37.37;33.11;99963.98;108049;1278;22160;-61
2023/06/18 06:56:30;;;;;;;7.20;4.90;;;;;;;37.60;32.96;99959.71;108144;1288;21992;-61
2023/06/18 06:58:56;;;;;;;7.20;5.60;;;;;;;37.78;32.85;99957.16;108093;1288;22002;-71
2023/06/18 07:01:22;;;;;;;8.70;6.30;;;;;;;37.87;32.57;99959.04;108082;1288;21995;-62
2023/06/18 07:03:48;;;;;;;8.10;5.90;;;;;;;37.97;32.26;99956.45;108120;1284;21988;-62
2023/06/18 07:06:13;;;;;;;7.80;5.00;;;;;;;38.10;32.01;99959.26;108100;1286;21989;-64
2023/06/18 07:08:39;;;;;;;6.70;4.50;;;;;;;38.26;31.67;99962.00;108111;1288;21989;-69
2023/06/18 07:11:05;;;;;;;8.00;4.70;;;;;;;38.39;31.54;99962.14;108109;1287;22463;-71
2023/06/18 07:13:30;;;;;;;7.30;4.90;;;;;;;38.48;31.28;99962.36;107853;1288;22000;-61
2023/06/18 07:15:56;;;;;;;5.80;4.60;;;;;;;38.47;31.11;99963.42;108004;1288;22029;-70
2023/06/18 07:18:22;;;;;;;6.20;4.50;;;;;;;38.53;31.30;99961.25;108209;1287;21991;-62
2023/06/18 07:20:48;;;;;;;9.30;4.40;;;;;;;38.69;30.96;99964.06;108051;1283;21992;-70
2023/06/18 07:23:13;;;;;;;5.90;4.60;;;;;;;38.80;30.70;99968.02;107817;1288;21989;-62
2023/06/18 07:25:39;;;;;;;5.20;4.70;;;;;;;38.86;30.25;99965.14;108106;1287;21991;-62
2023/06/18 07:28:04;;;;;;;6.40;4.90;;;;;;;38.85;30.17;99967.30;108086;1287;21991;-70
2023/06/18 07:30:30;;;;;;;6.90;4.60;;;;;;;38.94;30.16;99971.05;107950;1286;21997;-70
2023/06/18 07:32:56;;;;;;;5.40;4.10;;;;;;;39.01;30.14;99970.60;107986;1284;21989;-71
2023/06/18 07:35:21;;;;;;;8.00;4.80;;;;;;;39.23;30.22;99967.72;108026;1280;22243;-70
2023/06/18 07:37:47;;;;;;;7.00;4.60;;;;;;;39.54;29.99;99969.41;108199;1288;21987;-62
2023/06/18 07:40:13;;;;;;;8.30;4.50;;;;;;;39.77;29.47;99967.14;108083;1278;21998;-71
2023/06/18 07:42:39;;;;;;;8.50;4.50;;;;;;;39.90;29.38;99966.34;107966;1288;21986;-62
2023/06/18 07:45:05;;;;;;;5.80;4.40;;;;;;;40.05;29.37;99967.20;108070;1284;21984;-62
2023/06/18 07:47:30;;;;;;;5.70;4.40;;;;;;;40.25;29.36;99971.84;108938;1284;22040;-63
2023/06/18 07:49:58;;;;;;;12.00;4.60;;;;;;;40.38;29.00;99968.93;108124;1288;22021;-62
2023/06/18 07:52:24;;;;;;;5.90;4.30;;;;;;;40.41;29.01;99964.55;108263;1288;23644;-69
2023/06/18 07:54:50;;;;;;;7.10;4.20;;;;;;;40.60;29.03;99966.48;108091;1280;21998;-62
2023/06/18 07:57:15;;;;;;;4.80;3.60;;;;;;;40.76;28.50;99969.81;108094;1288;22037;-69
2023/06/18 07:59:41;;;;;;;6.60;3.90;;;;;;;40.90;28.36;99967.45;108111;1288;21992;-63
2023/06/18 08:02:07;;;;;;;5.10;4.00;;;;;;;41.06;28.12;99964.13;108139;1288;22229;-70
2023/06/18 08:04:33;;;;;;;7.90;3.90;;;;;;;41.15;28.10;99965.89;108119;1283;22026;-71
2023/06/18 08:06:59;;;;;;;6.80;4.20;;;;;;;41.38;27.99;99969.52;108121;1277;21998;-70
2023/06/18 08:09:24;;;;;;;5.40;3.80;;;;;;;41.66;27.67;99965.19;108103;1284;22094;-71
2023/06/18 08:11:51;;;;;;;6.50;3.70;;;;;;;41.94;27.32;99969.55;108055;1284;21995;-71
2023/06/18 08:14:18;;;;;;;5.60;4.20;;;;;;;42.09;26.93;99970.17;108106;1284;22000;-72
2023/06/18 08:16:43;;;;;;;6.40;4.30;;;;;;;42.08;26.66;99975.06;108169;1288;21991;-71
2023/06/18 08:19:09;;;;;;;5.90;4.70;;;;;;;42.02;26.43;99976.57;107976;1283;21988;-71
2023/06/18 08:21:34;;;;;;;5.90;4.10;;;;;;;42.01;26.41;99975.65;107955;1286;22625;-71
2023/06/18 08:24:00;;;;;;;7.30;4.00;;;;;;;41.99;26.06;99977.43;107975;1289;21981;-71
2023/06/18 08:26:26;;;;;;;5.50;4.40;;;;;;;41.93;25.78;99970.91;107977;1284;21983;-71
2023/06/18 08:28:51;;;;;;;5.60;4.40;;;;;;;41.76;25.61;99969.85;107977;1289;21992;-69
2023/06/18 08:31:20;;;;;;;6.30;4.20;;;;;;;41.58;25.75;99973.81;108014;1276;22151;-71
2023/06/18 08:33:46;;;;;;;6.70;4.20;;;;;;;41.60;25.68;99973.36;107981;1289;21997;-69
2023/06/18 08:36:11;;;;;;;5.50;4.00;;;;;;;41.59;25.37;99973.67;108093;1288;21995;-70
2023/06/18 08:38:37;;;;;;;6.30;4.40;;;;;;;41.49;25.55;99973.23;108033;1288;21997;-70
2023/06/18 08:41:03;;;;;;;8.40;4.30;;;;;;;41.44;25.47;99969.98;108922;1284;22044;-60
2023/06/18 08:43:32;;;;;;;6.20;4.80;;;;;;;41.46;25.29;99970.48;107776;1280;21992;-69
2023/06/18 08:46:11;;;;;;;;;;;;;;;41.42;25.11;99975.71;108034;1288;23693;-68
2023/06/18 08:48:44;;;;;;;5.10;4.00;;;;;;;41.38;25.23;99972.58;108178;1288;22001;-68
2023/06/18 08:51:11;;;;;;;5.30;3.70;;;;;;;41.52;24.87;99969.47;108177;1288;21991;-70
2023/06/18 08:53:40;;;;;;;5.60;4.40;;;;;;;41.59;25.01;99970.19;107994;1288;21990;-63
2023/06/18 08:56:07;;;;;;;5.60;4.40;;;;;;;41.66;24.74;99971.86;108044;1288;21998;-68
2023/06/18 08:58:35;;;;;;;6.10;4.20;;;;;;;41.67;23.99;99970.63;108108;1281;22092;-62
2023/06/18 09:01:01;;;;;;;5.30;4.00;;;;;;;41.54;24.03;99968.96;108136;1288;22021;-62
2023/06/18 09:03:27;;;;;;;6.20;4.10;;;;;;;41.58;24.06;99970.16;107836;1283;21962;-63
2023/06/18 09:05:53;;;;;;;4.60;4.00;;;;;;;41.67;23.71;99971.22;108126;1288;24384;-68
2023/06/18 09:08:19;;;;;;;5.40;3.70;;;;;;;41.71;23.29;99975.15;107911;1280;21994;-63
2023/06/18 09:10:45;;;;;;;4.80;3.70;;;;;;;41.64;23.27;99973.24;108287;1283;21988;-68
2023/06/18 09:13:10;;;;;;;15.50;4.20;;;;;;;41.74;23.38;99968.52;107955;1288;22454;-62
2023/06/18 09:15:36;;;;;;;5.00;3.90;;;;;;;42.04;23.38;99966.61;108038;1284;22002;-63
2023/06/18 09:18:02;;;;;;;4.40;3.90;;;;;;;42.30;22.97;99962.92;108136;1286;23052;-69
2023/06/18 09:20:28;;;;;;;7.20;3.80;;;;;;;42.41;23.12;99955.80;108180;1288;21990;-69
2023/06/18 09:22:53;;;;;;;5.10;4.10;;;;;;;42.61;22.82;99958.13;108084;1276;21994;-64
2023/06/18 09:25:20;;;;;;;4.40;3.80;;;;;;;42.70;22.61;99957.71;108085;1287;22040;-64
2023/06/18 09:27:46;;;;;;;4.70;3.60;;;;;;;42.76;22.38;99963.12;108080;1284;21989;-64
2023/06/18 09:30:23;;;;;;;9.10;3.90;;;;;;;42.63;22.02;99964.00;108079;1287;21989;-69
2023/06/18 09:32:49;;;;;;;6.70;3.90;;;;;;;42.48;22.05;99964.80;108160;1276;21989;-70
2023/06/18 09:35:16;;;;;;;7.70;4.20;;;;;;;42.52;22.21;99961.71;108103;1280;21999;-63
2023/06/18 09:37:43;;;;;;;5.20;4.10;;;;;;;42.66;22.42;99953.48;108116;1288;23035;-63
2023/06/18 09:40:15;;;;;;;4.70;4.00;;;;;;;42.89;22.38;99950.30;107897;1287;21983;-63
2023/06/18 09:42:42;;;;;;;6.20;4.50;;;;;;;43.19;22.12;99955.52;108104;1284;23772;-64
2023/06/18 09:45:09;;;;;;;5.10;4.20;;;;;;;43.29;21.37;99956.95;108161;1278;21996;-63
2023/06/18 09:47:40;;;;;;;5.60;4.40;;;;;;;43.28;21.70;99952.45;107992;1287;21982;-63
2023/06/18 09:50:08;;;;;;;7.20;4.50;;;;;;;43.33;21.43;99952.93;108148;1278;21992;-64
2023/06/18 09:52:49;;;;;;;4.70;4.10;;;;;;;43.35;21.16;99952.20;108173;1278;21990;-64
2023/06/18 09:55:29;;;;;;;4.60;4.10;;;;;;;43.40;21.37;99948.10;108146;1287;21997;-63
2023/06/18 09:57:54;;;;;;;7.70;4.50;;;;;;;43.75;21.72;99946.69;108073;1288;22030;-70
2023/06/18 10:00:21;;;;;;;4.60;3.90;;;;;;;44.25;21.59;99944.98;108133;1287;21999;-64
2023/06/18 10:02:50;;;;;;;4.30;3.90;;;;;;;44.69;21.29;99945.73;108167;1276;21986;-70
2023/06/18 10:05:15;;;;;;;5.30;3.80;;;;;;;45.09;21.14;99946.70;108096;1287;23736;-69
2023/06/18 10:07:41;;;;;;;4.90;4.20;;;;;;;45.46;20.64;99949.02;108162;1288;21987;-63
2023/06/18 10:10:13;;;;;;;6.00;4.70;;;;;;;45.62;20.54;99946.48;107862;1287;21990;-64
2023/06/18 10:12:47;;;;;;;7.50;4.20;;;;;;;45.55;20.34;99943.23;108185;1287;22001;-64
2023/06/18 10:15:12;;;;;;;5.80;4.10;;;;;;;45.49;20.32;99940.00;107900;1288;21995;-60
2023/06/18 10:17:44;;;;;;;5.70;4.10;;;;;;;45.53;20.45;99933.03;108101;1288;23618;-67
2023/06/18 10:20:12;;;;;;;5.90;3.80;;;;;;;45.74;20.38;99936.10;108104;1283;21992;-61
2023/06/18 10:22:45;;;;;;;4.80;4.20;;;;;;;46.00;20.27;99931.99;108084;1287;24444;-61
2023/06/18 10:25:10;;;;;;;4.20;3.80;;;;;;;46.34;20.19;99927.95;108059;1276;21985;-61
2023/06/18 10:27:36;;;;;;;4.50;3.70;;;;;;;46.58;20.01;99925.38;108043;1283;22004;-66
2023/06/18 10:30:03;;;;;;;4.70;4.00;;;;;;;46.88;19.76;99925.96;108016;1284;22455;-69
2023/06/18 10:32:31;;;;;;;9.00;4.40;;;;;;;47.18;19.26;99923.75;107786;1284;24436;-60
2023/06/18 10:34:58;;;;;;;5.70;4.50;;;;;;;47.40;19.48;99927.42;107809;1283;23656;-63
2023/06/18 10:37:26;;;;;;;4.80;4.00;;;;;;;47.51;19.15;99927.99;107794;1289;21987;-62
2023/06/18 10:39:53;;;;;;;5.10;3.80;;;;;;;47.49;19.11;99926.15;108021;1289;22025;-62
2023/06/18 10:42:18;;;;;;;4.20;3.80;;;;;;;47.45;19.08;99921.64;108030;1289;22555;-62
2023/06/18 10:44:47;;;;;;;4.80;3.70;;;;;;;47.43;19.06;99916.13;108075;1287;21980;-61
2023/06/18 10:47:17;;;;;;;6.80;4.20;;;;;;;47.48;19.08;99910.77;108093;1277;21990;-61
2023/06/18 10:50:03;;;;;;;5.10;3.80;;;;;;;47.59;18.92;99917.77;108077;1289;23647;-61
2023/06/18 10:52:31;;;;;;;5.40;3.60;;;;;;;47.51;18.75;99917.20;108015;1289;21993;-62
2023/06/18 10:55:12;;;;;;;7.30;3.90;;;;;;;47.36;18.69;99914.67;108145;1287;22115;-62
2023/06/18 10:57:45;;;;;;;7.00;3.70;;;;;;;47.22;18.52;99908.78;108111;1287;21985;-63
2023/06/18 11:00:15;;;;;;;5.90;3.60;;;;;;;47.20;18.23;99906.10;108089;1277;21993;-62
2023/06/18 11:02:41;;;;;;;4.30;3.70;;;;;;;47.08;18.32;99918.64;108175;1287;21988;-62
2023/06/18 11:05:07;;;;;;;7.20;4.00;;;;;;;47.14;18.33;99923.95;108095;1280;21989;-71
2023/06/18 11:07:33;;;;;;;4.60;3.80;;;;;;;47.30;18.24;99924.17;109350;1288;22015;-68
2023/06/18 11:10:01;;;;;;;4.90;4.00;;;;;;;47.49;18.32;99924.60;108111;1288;21993;-61
2023/06/18 11:12:27;;;;;;;5.20;3.50;;;;;;;47.69;18.13;99915.94;108186;1280;23118;-61
2023/06/18 11:15:18;;;;;;;4.70;3.90;;;;;;;47.86;17.96;99917.27;108115;1287;22026;-67
2023/06/18 11:17:51;;;;;;;4.20;3.50;;;;;;;47.85;17.81;99916.33;108049;1286;23631;-66
2023/06/18 11:20:18;;;;;;;6.40;3.60;;;;;;;47.68;17.78;99923.63;108101;1277;21995;-68
2023/06/18 11:22:45;;;;;;;7.20;3.40;;;;;;;47.36;17.64;99922.12;108070;1287;21989;-68